createdAt,value
2018-11-13T00:00:04.472Z,96109.00
2018-11-13T00:05:33.858Z,96117.00
2018-11-13T00:11:03.141Z,96117.00
2018-11-13T00:16:32.486Z,96116.00
2018-11-13T00:22:01.865Z,96123.00
2018-11-13T00:27:31.195Z,96122.00
2018-11-13T00:33:00.556Z,96124.00
2018-11-13T00:38:29.888Z,96127.00
2018-11-13T00:43:59.116Z,96126.00
2018-11-13T00:49:28.452Z,96126.00
2018-11-13T00:54:57.809Z,96122.00
2018-11-13T01:00:27.093Z,96121.00
2018-11-13T01:05:56.369Z,96114.00
2018-11-13T01:11:25.632Z,96110.00
2018-11-13T01:16:54.929Z,96113.00
2018-11-13T01:22:24.125Z,96117.00
2018-11-13T01:27:53.360Z,96106.00
2018-11-13T01:33:22.588Z,96109.00
2018-11-13T01:38:51.889Z,96104.00
2018-11-13T01:44:21.173Z,96098.00
2018-11-13T01:49:50.447Z,96092.00
2018-11-13T01:55:19.880Z,96098.00
2018-11-13T02:00:49.141Z,96088.00
2018-11-13T02:06:18.345Z,96083.00
2018-11-13T02:11:47.590Z,96081.00
2018-11-13T02:17:16.844Z,96093.00
2018-11-13T02:22:46.059Z,96099.00
2018-11-13T02:28:16.290Z,96099.00
2018-11-13T02:33:45.521Z,96092.00
2018-11-13T02:39:14.876Z,96096.00
2018-11-13T02:44:44.235Z,96085.00
2018-11-13T02:50:19.712Z,96085.00
2018-11-13T02:55:49.064Z,96074.00
2018-11-13T03:01:18.279Z,96070.00
2018-11-13T03:06:47.497Z,96064.00
2018-11-13T03:12:16.937Z,96070.00
2018-11-13T03:17:46.199Z,96070.00
2018-11-13T03:23:15.483Z,96054.00
2018-11-13T03:28:44.695Z,96055.00
2018-11-13T03:34:14.760Z,96059.00
2018-11-13T03:39:44.788Z,96050.00
2018-11-13T03:45:14.395Z,96062.00
2018-11-13T03:50:43.663Z,96063.00
2018-11-13T03:56:12.944Z,96075.00
2018-11-13T04:01:44.304Z,96082.00
2018-11-13T04:07:13.483Z,96102.00
2018-11-13T04:12:42.931Z,96091.00
2018-11-13T04:18:12.276Z,96095.00
2018-11-13T04:23:41.495Z,96114.00
2018-11-13T04:29:10.787Z,96112.00
2018-11-13T04:34:40.090Z,96110.00
2018-11-13T04:40:12.855Z,96114.00
2018-11-13T04:45:42.101Z,96131.00
2018-11-13T04:51:11.434Z,96145.00
2018-11-13T04:56:41.579Z,96137.00
2018-11-13T05:02:10.921Z,96155.00
2018-11-13T05:07:40.328Z,96150.00
2018-11-13T05:13:09.667Z,96164.00
2018-11-13T05:18:39.019Z,96177.00
2018-11-13T05:24:08.361Z,96188.00
2018-11-13T05:29:37.671Z,96193.00
2018-11-13T05:35:10.520Z,96210.00
2018-11-13T05:40:39.813Z,96257.00
2018-11-13T05:46:10.097Z,96248.00
2018-11-13T05:51:39.572Z,96250.00
2018-11-13T05:57:08.992Z,96269.00
2018-11-13T06:02:38.554Z,96266.00
2018-11-13T06:08:07.790Z,96262.00
2018-11-13T06:13:37.086Z,96268.00
2018-11-13T06:19:06.402Z,96286.00
2018-11-13T06:24:35.645Z,96292.00
2018-11-13T06:30:07.536Z,96297.00
2018-11-13T06:35:36.726Z,96309.00
2018-11-13T06:41:06.496Z,96316.00
2018-11-13T06:46:35.730Z,96333.00
2018-11-13T06:52:04.974Z,96332.00
2018-11-13T06:57:34.497Z,96335.00
2018-11-13T07:03:03.671Z,96350.00
2018-11-13T07:08:32.892Z,96349.00
2018-11-13T07:14:02.084Z,96353.00
2018-11-13T07:19:31.340Z,96361.00
2018-11-13T07:25:00.592Z,96374.00
2018-11-13T07:30:29.862Z,96373.00
2018-11-13T07:35:59.073Z,96380.00
2018-11-13T07:41:28.280Z,96381.00
2018-11-13T07:46:57.657Z,96388.00
2018-11-13T07:52:26.803Z,96397.00
2018-11-13T07:57:57.133Z,96398.00
2018-11-13T08:03:32.374Z,96408.00
2018-11-13T08:09:01.564Z,96415.00
2018-11-13T08:14:30.780Z,96423.00
2018-11-13T08:19:59.993Z,96430.00
2018-11-13T08:25:29.243Z,96448.00
2018-11-13T08:30:58.425Z,96469.00
2018-11-13T08:36:27.656Z,96467.00
2018-11-13T08:41:56.886Z,96480.00
2018-11-13T08:47:26.284Z,96493.00
2018-11-13T08:52:55.576Z,96501.00
2018-11-13T08:58:24.795Z,96503.00
2018-11-13T09:03:53.996Z,96510.00
2018-11-13T09:09:23.193Z,96520.00
2018-11-13T09:14:52.408Z,96527.00
2018-11-13T09:20:21.760Z,96529.00
2018-11-13T09:25:50.961Z,96533.00
2018-11-13T09:31:20.224Z,96540.00
2018-11-13T09:36:49.446Z,96542.00
2018-11-13T09:42:18.804Z,96543.00
2018-11-13T09:47:48.122Z,96562.00
2018-11-13T09:53:18.372Z,96572.00
2018-11-13T09:58:47.646Z,96571.00
2018-11-13T10:04:17.530Z,96587.00
2018-11-13T10:09:46.136Z,96600.00
2018-11-13T10:15:24.239Z,96632.00
2018-11-13T10:20:53.560Z,96617.00
2018-11-13T10:26:22.837Z,96635.00
2018-11-13T10:31:52.032Z,96630.00
2018-11-13T10:37:21.347Z,96634.00
2018-11-13T10:42:51.173Z,96643.00
2018-11-13T10:48:20.561Z,96640.00
2018-11-13T10:53:50.247Z,96641.00
2018-11-13T10:59:20.802Z,96653.00
2018-11-13T11:04:50.817Z,96662.00
2018-11-13T11:10:23.126Z,96666.00
2018-11-13T11:15:53.033Z,96669.00
2018-11-13T11:21:38.145Z,96681.00
2018-11-13T11:27:30.387Z,96693.00
2018-11-13T11:33:23.935Z,96693.00
2018-11-13T11:39:04.093Z,96704.00
2018-11-13T11:44:38.210Z,96704.00
2018-11-13T11:50:21.021Z,96715.00
2018-11-13T11:55:53.646Z,96717.00
2018-11-13T12:07:20.460Z,96721.00
2018-11-13T12:12:50.223Z,96729.00
2018-11-13T12:18:21.759Z,96725.00
2018-11-13T12:23:51.422Z,96717.00
2018-11-13T12:29:26.922Z,96721.00
2018-11-13T12:34:56.543Z,96719.00
2018-11-13T12:40:26.163Z,96710.00
2018-11-13T12:45:55.483Z,96718.00
2018-11-13T12:51:29.893Z,96710.00
2018-11-13T12:56:59.254Z,96713.00
2018-11-13T13:02:28.670Z,96717.00
2018-11-13T13:07:58.011Z,96721.00
2018-11-13T13:13:27.328Z,96733.00
2018-11-13T13:18:56.673Z,96739.00
2018-11-13T13:24:30.321Z,96732.00
2018-11-13T13:29:59.668Z,96743.00
2018-11-13T13:35:46.076Z,96744.00
2018-11-13T13:41:15.420Z,96755.00
2018-11-13T13:46:44.949Z,96762.00
2018-11-13T13:52:14.210Z,96777.00
2018-11-13T13:57:43.472Z,96790.00
2018-11-13T14:03:13.617Z,96807.00
2018-11-13T14:08:43.163Z,96798.00
2018-11-13T14:14:12.532Z,96809.00
2018-11-13T14:19:41.959Z,96816.00
2018-11-13T14:25:14.581Z,96842.00
2018-11-13T14:30:44.157Z,96841.00
2018-11-13T14:36:13.729Z,96835.00
2018-11-13T14:41:43.124Z,96839.00
2018-11-13T14:47:15.149Z,96848.00
2018-11-13T14:52:44.939Z,96841.00
2018-11-13T14:58:49.222Z,96859.00
2018-11-13T15:04:21.564Z,96853.00
2018-11-13T15:09:52.968Z,96870.00
2018-11-13T15:15:24.037Z,96870.00
2018-11-13T15:20:53.477Z,96871.00
2018-11-13T15:26:23.841Z,96876.00
2018-11-13T15:31:54.478Z,96875.00
2018-11-13T15:37:24.261Z,96887.00
2018-11-13T15:48:53.457Z,96917.00
2018-11-13T15:54:23.008Z,96924.00
2018-11-13T15:59:52.444Z,96939.00
2018-11-13T16:05:40.980Z,96939.00
2018-11-13T16:11:26.382Z,96938.00
2018-11-13T16:16:58.353Z,96945.00
2018-11-13T16:22:29.679Z,96961.00
2018-11-13T16:27:59.017Z,96957.00
2018-11-13T16:33:46.361Z,96957.00
2018-11-13T16:39:15.901Z,96965.00
2018-11-13T16:44:45.255Z,96964.00
2018-11-13T16:50:21.732Z,96970.00
2018-11-13T16:56:03.926Z,96959.00
2018-11-13T17:01:38.923Z,96970.00
2018-11-13T17:13:20.613Z,96977.00
2018-11-13T17:18:50.111Z,96981.00
2018-11-13T17:24:19.530Z,96982.00
2018-11-13T17:29:50.669Z,96986.00
2018-11-13T17:35:26.530Z,96984.00
2018-11-13T17:40:56.230Z,96988.00
2018-11-13T17:46:27.600Z,96989.00
2018-11-13T17:52:00.966Z,96978.00
2018-11-13T17:57:31.458Z,96974.00
2018-11-13T18:03:01.662Z,96977.00
2018-11-13T18:08:31.590Z,96973.00
2018-11-13T18:14:02.331Z,96981.00
2018-11-13T18:19:33.970Z,96983.00
2018-11-13T18:25:04.725Z,96974.00
2018-11-13T18:30:36.363Z,96984.00
2018-11-13T18:36:07.526Z,96991.00
2018-11-13T18:41:37.596Z,96992.00
2018-11-13T18:47:07.074Z,96986.00
2018-11-13T18:52:54.128Z,96976.00
2018-11-13T18:58:28.721Z,96986.00
2018-11-13T19:04:01.552Z,97005.00
2018-11-13T19:09:31.885Z,97016.00
2018-11-13T19:15:02.478Z,97016.00
2018-11-13T19:20:32.024Z,97019.00
2018-11-13T19:26:01.343Z,97014.00
2018-11-13T19:31:31.112Z,97014.00
2018-11-13T19:37:00.682Z,97010.00
2018-11-13T19:42:32.079Z,97018.00
2018-11-13T19:48:01.667Z,97008.00
2018-11-13T19:53:33.281Z,97019.00
2018-11-13T19:59:03.698Z,97020.00
2018-11-13T20:04:40.551Z,97035.00
2018-11-13T20:10:30.429Z,97028.00
2018-11-13T20:16:06.138Z,97029.00
2018-11-13T20:21:42.583Z,97024.00
2018-11-13T20:27:15.600Z,97023.00
2018-11-13T20:32:46.104Z,97031.00
2018-11-13T20:38:15.827Z,97021.00
2018-11-13T20:43:46.202Z,97024.00
2018-11-13T20:49:18.202Z,97028.00
2018-11-13T20:54:48.090Z,97033.00
2018-11-13T21:00:21.072Z,97031.00
2018-11-13T21:05:53.927Z,97026.00
2018-11-13T21:11:45.133Z,97025.00
2018-11-13T21:17:24.585Z,97028.00
2018-11-13T21:23:06.118Z,97033.00
2018-11-13T21:28:37.967Z,97036.00
2018-11-13T21:34:09.560Z,97029.00
2018-11-13T21:39:40.026Z,97026.00
2018-11-13T21:45:27.837Z,97029.00
2018-11-13T21:51:05.324Z,97036.00
2018-11-13T22:03:54.159Z,97041.00
2018-11-13T22:09:23.820Z,97048.00
2018-11-13T22:14:54.456Z,97047.00
2018-11-13T22:26:24.054Z,97043.00
2018-11-13T22:31:55.878Z,97042.00
2018-11-13T22:37:28.378Z,97042.00
2018-11-13T22:43:00.799Z,97048.00
2018-11-13T22:48:32.325Z,97046.00
2018-11-13T22:54:09.505Z,97054.00
2018-11-13T22:59:39.758Z,97046.00
2018-11-13T23:05:14.633Z,97045.00
2018-11-13T23:10:50.691Z,97051.00
2018-11-13T23:16:29.729Z,97042.00
2018-11-13T23:22:09.639Z,97037.00
2018-11-13T23:33:48.063Z,97034.00
